sensor_id;sensor_type;location;lat;lon;timestamp;pressure;altitude;pressure_sealevel;temperature;humidity
42945;BME280;28584;42.636;23.294;2023-07-20T00:01:21;164039.59;;;20.55;100.00
42945;BME280;28584;42.636;23.294;2023-07-20T00:03:46;164102.88;;;20.78;100.00
42945;BME280;28584;42.636;23.294;2023-07-20T00:06:20;164129.81;;;20.88;100.00
42945;BME280;28584;42.636;23.294;2023-07-20T00:08:45;164127.09;;;20.87;100.00
42945;BME280;28584;42.636;23.294;2023-07-20T00:11:11;164135.16;;;20.90;100.00
42945;BME280;28584;42.636;23.294;2023-07-20T00:13:38;164156.75;;;20.98;100.00
42945;BME280;28584;42.636;23.294;2023-07-20T00:16:04;164170.22;;;21.03;100.00
42945;BME280;28584;42.636;23.294;2023-07-20T00:18:29;164170.22;;;21.03;100.00
42945;BME280;28584;42.636;23.294;2023-07-20T00:20:55;164162.16;;;21.00;100.00
42945;BME280;28584;42.636;23.294;2023-07-20T00:23:20;164141.94;;;20.93;100.00
42945;BME280;28584;42.636;23.294;2023-07-20T00:25:50;164147.34;;;20.95;100.00
42945;BME280;28584;42.636;23.294;2023-07-20T00:28:16;164151.38;;;20.96;100.00
42945;BME280;28584;42.636;23.294;2023-07-20T00:30:41;164162.16;;;21.00;100.00
42945;BME280;28584;42.636;23.294;2023-07-20T00:33:10;164140.56;;;20.92;100.00
42945;BME280;28584;42.636;23.294;2023-07-20T00:35:36;164100.16;;;20.77;100.00
42945;BME280;28584;42.636;23.294;2023-07-20T00:38:03;164081.31;;;20.70;100.00
42945;BME280;28584;42.636;23.294;2023-07-20T00:40:28;164097.47;;;20.76;100.00
42945;BME280;28584;42.636;23.294;2023-07-20T00:42:54;164092.13;;;20.74;100.00
42945;BME280;28584;42.636;23.294;2023-07-20T00:45:19;164092.13;;;20.74;100.00
42945;BME280;28584;42.636;23.294;2023-07-20T00:47:46;164063.84;;;20.64;100.00
42945;BME280;28584;42.636;23.294;2023-07-20T00:50:12;164046.38;;;20.57;100.00
42945;BME280;28584;42.636;23.294;2023-07-20T00:52:38;164003.28;;;20.41;100.00
42945;BME280;28584;42.636;23.294;2023-07-20T00:55:07;164024.81;;;20.49;100.00
42945;BME280;28584;42.636;23.294;2023-07-20T00:57:32;164081.31;;;20.70;100.00
42945;BME280;28584;42.636;23.294;2023-07-20T00:59:58;164043.66;;;20.56;100.00
42945;BME280;28584;42.636;23.294;2023-07-20T01:02:24;164001.94;;;20.41;100.00
42945;BME280;28584;42.636;23.294;2023-07-20T01:04:49;163938.72;;;20.17;100.00
42945;BME280;28584;42.636;23.294;2023-07-20T01:07:23;163890.25;;;19.99;100.00
42945;BME280;28584;42.636;23.294;2023-07-20T01:10:13;163856.63;;;19.87;100.00
42945;BME280;28584;42.636;23.294;2023-07-20T01:12:47;163806.84;;;19.68;100.00
42945;BME280;28584;42.636;23.294;2023-07-20T01:15:13;163785.34;;;19.60;100.00
42945;BME280;28584;42.636;23.294;2023-07-20T01:17:38;163851.22;;;19.85;100.00
42945;BME280;28584;42.636;23.294;2023-07-20T01:20:06;163860.66;;;19.88;100.00
42945;BME280;28584;42.636;23.294;2023-07-20T01:32:57;163701.97;;;19.29;100.00
42945;BME280;28584;42.636;23.294;2023-07-20T01:35:27;163680.38;;;19.21;100.00
42945;BME280;28584;42.636;23.294;2023-07-20T01:37:53;163648.16;;;19.09;100.00
42945;BME280;28584;42.636;23.294;2023-07-20T01:40:19;163618.59;;;18.98;100.00
42945;BME280;28584;42.636;23.294;2023-07-20T01:42:46;163555.38;;;18.74;100.00
42945;BME280;28584;42.636;23.294;2023-07-20T01:45:12;163540.59;;;18.69;100.00
42945;BME280;28584;42.636;23.294;2023-07-20T01:47:38;163543.31;;;18.70;100.00
42945;BME280;28584;42.636;23.294;2023-07-20T01:50:03;163527.19;;;18.64;100.00
42945;BME280;28584;42.636;23.294;2023-07-20T01:52:29;163505.66;;;18.56;100.00
42945;BME280;28584;42.636;23.294;2023-07-20T01:54:54;163492.22;;;18.51;100.00
42945;BME280;28584;42.636;23.294;2023-07-20T01:57:20;163497.63;;;18.53;100.00
42945;BME280;28584;42.636;23.294;2023-07-20T01:59:45;163472.06;;;18.43;100.00
42945;BME280;28584;42.636;23.294;2023-07-20T02:02:11;163425.00;;;18.26;100.00
42945;BME280;28584;42.636;23.294;2023-07-20T02:04:36;163415.56;;;18.22;100.00
42945;BME280;28584;42.636;23.294;2023-07-20T02:07:02;163380.69;;;18.09;100.00
42945;BME280;28584;42.636;23.294;2023-07-20T02:09:27;163352.44;;;17.99;100.00
42945;BME280;28584;42.636;23.294;2023-07-20T02:11:53;163328.25;;;17.90;100.00
42945;BME280;28584;42.636;23.294;2023-07-20T02:14:18;163332.28;;;17.91;100.00
42945;BME280;28584;42.636;23.294;2023-07-20T02:16:43;163325.59;;;17.89;100.00
42945;BME280;28584;42.636;23.294;2023-07-20T02:19:09;163282.59;;;17.73;100.00
42945;BME280;28584;42.636;23.294;2023-07-20T02:21:34;163250.38;;;17.61;100.00
42945;BME280;28584;42.636;23.294;2023-07-20T02:24:00;163253.03;;;17.62;100.00
42945;BME280;28584;42.636;23.294;2023-07-20T02:26:25;163266.50;;;17.67;100.00
42945;BME280;28584;42.636;23.294;2023-07-20T02:28:51;163253.03;;;17.62;100.00
42945;BME280;28584;42.636;23.294;2023-07-20T02:31:16;163244.97;;;17.59;100.00
42945;BME280;28584;42.636;23.294;2023-07-20T02:33:42;163239.63;;;17.57;100.00
42945;BME280;28584;42.636;23.294;2023-07-20T02:36:07;163223.50;;;17.51;100.00
42945;BME280;28584;42.636;23.294;2023-07-20T02:38:32;163207.38;;;17.45;100.00
42945;BME280;28584;42.636;23.294;2023-07-20T02:40:58;163191.25;;;17.39;100.00
42945;BME280;28584;42.636;23.294;2023-07-20T02:43:23;163199.38;;;17.42;100.00
42945;BME280;28584;42.636;23.294;2023-07-20T02:45:50;163188.53;;;17.38;100.00
42945;BME280;28584;42.636;23.294;2023-07-20T02:48:15;163196.59;;;17.41;100.00
42945;BME280;28584;42.636;23.294;2023-07-20T02:50:41;163192.56;;;17.39;100.00
42945;BME280;28584;42.636;23.294;2023-07-20T02:53:06;163191.25;;;17.39;100.00
42945;BME280;28584;42.636;23.294;2023-07-20T02:55:32;163185.88;;;17.37;100.00
42945;BME280;28584;42.636;23.294;2023-07-20T02:57:57;163199.38;;;17.42;100.00
42945;BME280;28584;42.636;23.294;2023-07-20T03:00:22;163191.25;;;17.39;100.00
42945;BME280;28584;42.636;23.294;2023-07-20T03:02:51;163207.38;;;17.45;100.00
42945;BME280;28584;42.636;23.294;2023-07-20T03:05:21;163226.19;;;17.52;100.00
42945;BME280;28584;42.636;23.294;2023-07-20T03:07:48;163204.72;;;17.44;100.00
42945;BME280;28584;42.636;23.294;2023-07-20T03:10:14;163203.34;;;17.43;100.00
42945;BME280;28584;42.636;23.294;2023-07-20T03:12:39;163204.72;;;17.44;100.00
42945;BME280;28584;42.636;23.294;2023-07-20T03:15:05;163192.56;;;17.39;100.00
42945;BME280;28584;42.636;23.294;2023-07-20T03:17:31;163203.34;;;17.43;100.00
42945;BME280;28584;42.636;23.294;2023-07-20T03:19:57;163202.03;;;17.43;100.00
42945;BME280;28584;42.636;23.294;2023-07-20T03:22:22;163208.75;;;17.45;100.00
42945;BME280;28584;42.636;23.294;2023-07-20T03:24:49;163242.31;;;17.58;100.00
42945;BME280;28584;42.636;23.294;2023-07-20T03:27:16;163262.47;;;17.65;100.00
42945;BME280;28584;42.636;23.294;2023-07-20T03:29:41;163286.63;;;17.74;100.00
42945;BME280;28584;42.636;23.294;2023-07-20T03:32:07;163317.50;;;17.86;100.00
42945;BME280;28584;42.636;23.294;2023-07-20T03:34:32;163333.66;;;17.92;100.00
42945;BME280;28584;42.636;23.294;2023-07-20T03:36:58;163379.31;;;18.09;100.00
42945;BME280;28584;42.636;23.294;2023-07-20T03:39:24;163435.75;;;18.30;100.00
42945;BME280;28584;42.636;23.294;2023-07-20T03:41:49;163482.84;;;18.47;100.00
42945;BME280;28584;42.636;23.294;2023-07-20T03:44:15;163554.06;;;18.74;100.00
42945;BME280;28584;42.636;23.294;2023-07-20T03:46:40;163602.44;;;18.92;100.00
42945;BME280;28584;42.636;23.294;2023-07-20T03:49:06;163648.16;;;19.09;100.00
42945;BME280;28584;42.636;23.294;2023-07-20T03:51:32;163718.09;;;19.35;100.00
42945;BME280;28584;42.636;23.294;2023-07-20T03:53:57;163775.91;;;19.57;100.00
42945;BME280;28584;42.636;23.294;2023-07-20T03:56:23;163860.66;;;19.88;100.00
42945;BME280;28584;42.636;23.294;2023-07-20T03:58:49;163925.28;;;20.12;100.00
42945;BME280;28584;42.636;23.294;2023-07-20T04:01:14;164019.47;;;20.47;100.00
42945;BME280;28584;42.636;23.294;2023-07-20T04:03:42;164105.56;;;20.79;100.00
42945;BME280;28584;42.636;23.294;2023-07-20T04:06:08;164193.13;;;21.12;100.00
42945;BME280;28584;42.636;23.294;2023-07-20T04:08:33;164275.22;;;21.42;100.00
42945;BME280;28584;42.636;23.294;2023-07-20T04:11:03;164342.53;;;21.67;100.00
42945;BME280;28584;42.636;23.294;2023-07-20T04:13:29;164424.78;;;21.98;100.00
42945;BME280;28584;42.636;23.294;2023-07-20T04:15:58;164512.34;;;22.31;100.00
42945;BME280;28584;42.636;23.294;2023-07-20T04:18:24;164558.16;;;22.48;100.00
42945;BME280;28584;42.636;23.294;2023-07-20T04:20:49;164605.34;;;22.65;100.00
42945;BME280;28584;42.636;23.294;2023-07-20T04:23:15;164661.94;;;22.86;100.00
42945;BME280;28584;42.636;23.294;2023-07-20T04:25:40;164728.00;;;23.11;100.00
42945;BME280;28584;42.636;23.294;2023-07-20T04:28:07;164792.75;;;23.35;99.29
42945;BME280;28584;42.636;23.294;2023-07-20T04:30:36;164833.19;;;23.50;97.45
42945;BME280;28584;42.636;23.294;2023-07-20T04:33:03;164873.63;;;23.65;96.92
42945;BME280;28584;42.636;23.294;2023-07-20T04:35:48;164906.00;;;23.77;93.60
42945;BME280;28584;42.636;23.294;2023-07-20T04:38:14;164932.97;;;23.87;91.94
42945;BME280;28584;42.636;23.294;2023-07-20T04:40:44;164982.94;;;24.06;92.81
42945;BME280;28584;42.636;23.294;2023-07-20T04:43:10;165027.44;;;24.22;86.00
42945;BME280;28584;42.636;23.294;2023-07-20T04:45:35;165019.34;;;24.19;84.54
42945;BME280;28584;42.636;23.294;2023-07-20T04:48:01;165053.06;;;24.32;86.43
42945;BME280;28584;42.636;23.294;2023-07-20T04:50:26;165107.03;;;24.52;83.10
42945;BME280;28584;42.636;23.294;2023-07-20T04:52:51;165167.78;;;24.74;81.90
42945;BME280;28584;42.636;23.294;2023-07-20T04:55:17;165208.25;;;24.89;80.31
42945;BME280;28584;42.636;23.294;2023-07-20T04:57:43;165290.56;;;25.20;77.21
42945;BME280;28584;42.636;23.294;2023-07-20T05:00:09;165293.28;;;25.21;71.99
42945;BME280;28584;42.636;23.294;2023-07-20T05:02:36;165262.25;;;25.09;74.16
42945;BME280;28584;42.636;23.294;2023-07-20T05:05:03;165337.88;;;25.37;74.46
42945;BME280;28584;42.636;23.294;2023-07-20T05:07:31;165390.50;;;25.57;71.93
42945;BME280;28584;42.636;23.294;2023-07-20T05:09:56;165410.78;;;25.64;71.94
42945;BME280;28584;42.636;23.294;2023-07-20T05:12:22;165425.63;;;25.70;74.02
42945;BME280;28584;42.636;23.294;2023-07-20T05:14:47;165510.78;;;26.01;68.22
42945;BME280;28584;42.636;23.294;2023-07-20T05:17:12;165548.59;;;26.15;67.38
42945;BME280;28584;42.636;23.294;2023-07-20T05:19:38;165589.06;;;26.30;64.31
42945;BME280;28584;42.636;23.294;2023-07-20T05:22:03;165536.41;;;26.11;64.49
42945;BME280;28584;42.636;23.294;2023-07-20T05:24:30;165603.94;;;26.36;63.88
42945;BME280;28584;42.636;23.294;2023-07-20T05:26:57;165735.03;;;26.85;63.46
42945;BME280;28584;42.636;23.294;2023-07-20T05:29:22;165858.03;;;27.30;60.11
42945;BME280;28584;42.636;23.294;2023-07-20T05:31:48;165855.34;;;27.29;59.54
42945;BME280;28584;42.636;23.294;2023-07-20T05:34:13;165997.28;;;27.82;57.88
42945;BME280;28584;42.636;23.294;2023-07-20T05:36:39;166093.28;;;28.17;56.49
42945;BME280;28584;42.636;23.294;2023-07-20T05:39:05;166212.34;;;28.61;55.06
42945;BME280;28584;42.636;23.294;2023-07-20T05:41:30;166282.69;;;28.87;53.97
42945;BME280;28584;42.636;23.294;2023-07-20T05:43:56;166223.16;;;28.65;52.99
42945;BME280;28584;42.636;23.294;2023-07-20T05:46:21;165521.56;;;26.05;58.93
42945;BME280;28584;42.636;23.294;2023-07-20T05:48:46;165382.41;;;25.54;65.06
42945;BME280;28584;42.636;23.294;2023-07-20T05:51:12;165518.81;;;26.04;63.78
42945;BME280;28584;42.636;23.294;2023-07-20T05:53:37;165452.63;;;25.80;62.10
42945;BME280;28584;42.636;23.294;2023-07-20T05:56:04;165626.91;;;26.44;61.23
42945;BME280;28584;42.636;23.294;2023-07-20T05:58:29;165928.31;;;27.56;58.99
42945;BME280;28584;42.636;23.294;2023-07-20T06:00:54;166194.78;;;28.55;55.87
42945;BME280;28584;42.636;23.294;2023-07-20T06:03:20;165994.53;;;27.81;55.67
42945;BME280;28584;42.636;23.294;2023-07-20T06:05:47;166173.09;;;28.47;54.46
42945;BME280;28584;42.636;23.294;2023-07-20T06:08:12;166362.56;;;29.17;51.63
42945;BME280;28584;42.636;23.294;2023-07-20T06:10:38;165791.78;;;27.06;55.40
42945;BME280;28584;42.636;23.294;2023-07-20T06:13:03;166054.09;;;28.03;55.06
42945;BME280;28584;42.636;23.294;2023-07-20T06:15:33;166330.06;;;29.05;53.11
42945;BME280;28584;42.636;23.294;2023-07-20T06:18:00;166344.94;;;29.11;52.05
42945;BME280;28584;42.636;23.294;2023-07-20T06:20:26;166319.19;;;29.01;52.23
42945;BME280;28584;42.636;23.294;2023-07-20T06:22:52;166646.84;;;30.22;49.92
42945;BME280;28584;42.636;23.294;2023-07-20T06:25:17;166159.56;;;28.42;53.20
42945;BME280;28584;42.636;23.294;2023-07-20T06:27:43;166424.78;;;29.40;50.62
42945;BME280;28584;42.636;23.294;2023-07-20T06:30:09;166522.28;;;29.76;48.98
42945;BME280;28584;42.636;23.294;2023-07-20T06:32:35;166040.53;;;27.98;52.75
42945;BME280;28584;42.636;23.294;2023-07-20T06:35:01;166539.88;;;29.83;49.29
42945;BME280;28584;42.636;23.294;2023-07-20T06:37:26;166801.22;;;30.79;47.60
42945;BME280;28584;42.636;23.294;2023-07-20T06:39:52;166468.09;;;29.56;48.00
42945;BME280;28584;42.636;23.294;2023-07-20T06:42:17;166459.97;;;29.53;49.48
42945;BME280;28584;42.636;23.294;2023-07-20T06:44:43;166575.06;;;29.96;48.55
42945;BME280;28584;42.636;23.294;2023-07-20T06:47:08;166657.66;;;30.26;48.36
42945;BME280;28584;42.636;23.294;2023-07-20T06:49:33;166671.25;;;30.31;47.93
42945;BME280;28584;42.636;23.294;2023-07-20T06:51:59;166416.66;;;29.37;49.94
42945;BME280;28584;42.636;23.294;2023-07-20T06:54:24;166575.06;;;29.96;48.86
42945;BME280;28584;42.636;23.294;2023-07-20T06:56:50;166319.19;;;29.01;49.87
42945;BME280;28584;42.636;23.294;2023-07-20T06:59:16;166409.88;;;29.35;49.61
42945;BME280;28584;42.636;23.294;2023-07-20T07:01:41;166711.84;;;30.46;48.34
42945;BME280;28584;42.636;23.294;2023-07-20T07:04:06;167015.28;;;31.59;44.93
42945;BME280;28584;42.636;23.294;2023-07-20T07:06:32;167031.56;;;31.65;44.61
42945;BME280;28584;42.636;23.294;2023-07-20T07:08:58;166581.81;;;29.98;47.67
42945;BME280;28584;42.636;23.294;2023-07-20T07:11:23;166078.41;;;28.12;50.55
42945;BME280;28584;42.636;23.294;2023-07-20T07:13:49;165925.59;;;27.55;54.12
42945;BME280;28584;42.636;23.294;2023-07-20T07:16:16;165926.97;;;27.56;53.74
42945;BME280;28584;42.636;23.294;2023-07-20T07:18:47;165944.50;;;27.62;52.59
42945;BME280;28584;42.636;23.294;2023-07-20T07:21:12;165905.34;;;27.48;54.19
42945;BME280;28584;42.636;23.294;2023-07-20T07:23:38;165891.81;;;27.43;54.73
42945;BME280;28584;42.636;23.294;2023-07-20T07:26:04;166027.06;;;27.93;53.94
42945;BME280;28584;42.636;23.294;2023-07-20T07:28:29;165944.50;;;27.62;53.40
42945;BME280;28584;42.636;23.294;2023-07-20T07:30:55;165994.53;;;27.81;54.55
42945;BME280;28584;42.636;23.294;2023-07-20T07:33:22;166200.16;;;28.57;53.34
42945;BME280;28584;42.636;23.294;2023-07-20T07:35:48;166142.00;;;28.35;53.34
42945;BME280;28584;42.636;23.294;2023-07-20T07:38:14;166392.31;;;29.28;51.54
42945;BME280;28584;42.636;23.294;2023-07-20T07:40:39;166530.41;;;29.79;49.76
42945;BME280;28584;42.636;23.294;2023-07-20T07:43:05;166501.97;;;29.69;49.40
42945;BME280;28584;42.636;23.294;2023-07-20T07:45:34;166673.94;;;30.32;48.66
42945;BME280;28584;42.636;23.294;2023-07-20T07:48:00;166550.69;;;29.87;49.21
42945;BME280;28584;42.636;23.294;2023-07-20T07:50:26;166615.66;;;30.11;50.55
42945;BME280;28584;42.636;23.294;2023-07-20T07:52:52;166806.66;;;30.81;48.42
42945;BME280;28584;42.636;23.294;2023-07-20T07:55:17;167129.16;;;32.01;46.15
42945;BME280;28584;42.636;23.294;2023-07-20T07:57:43;166885.19;;;31.10;46.90
42945;BME280;28584;42.636;23.294;2023-07-20T08:00:09;166951.63;;;31.35;47.42
42945;BME280;28584;42.636;23.294;2023-07-20T08:02:42;167294.56;;;32.62;44.92
42945;BME280;28584;42.636;23.294;2023-07-20T08:05:08;166929.97;;;31.27;47.09
42945;BME280;28584;42.636;23.294;2023-07-20T08:07:34;166455.91;;;29.52;50.86
42945;BME280;28584;42.636;23.294;2023-07-20T08:09:59;166231.28;;;28.68;53.34
42945;BME280;28584;42.636;23.294;2023-07-20T08:12:26;166186.66;;;28.52;55.62
42945;BME280;28584;42.636;23.294;2023-07-20T08:14:51;165932.38;;;27.58;58.25
42945;BME280;28584;42.636;23.294;2023-07-20T08:17:17;165767.44;;;26.97;63.15
42945;BME280;28584;42.636;23.294;2023-07-20T08:19:42;165783.66;;;27.03;64.25
42945;BME280;28584;42.636;23.294;2023-07-20T08:22:09;165771.50;;;26.98;70.06
42945;BME280;28584;42.636;23.294;2023-07-20T08:24:34;165540.47;;;26.12;77.60
42945;BME280;28584;42.636;23.294;2023-07-20T08:27:00;165653.91;;;26.54;75.57
42945;BME280;28584;42.636;23.294;2023-07-20T08:29:25;165632.31;;;26.46;79.68
42945;BME280;28584;42.636;23.294;2023-07-20T08:31:51;165652.53;;;26.54;68.54
42945;BME280;28584;42.636;23.294;2023-07-20T08:34:16;165639.06;;;26.49;65.04
42945;BME280;28584;42.636;23.294;2023-07-20T08:36:42;165645.81;;;26.51;62.43
42945;BME280;28584;42.636;23.294;2023-07-20T08:39:07;165659.28;;;26.56;62.48
42945;BME280;28584;42.636;23.294;2023-07-20T08:41:34;165672.88;;;26.62;59.99
42945;BME280;28584;42.636;23.294;2023-07-20T08:44:01;165737.72;;;26.86;59.39
42945;BME280;28584;42.636;23.294;2023-07-20T08:46:27;165702.59;;;26.73;60.67
42945;BME280;28584;42.636;23.294;2023-07-20T08:48:53;165593.13;;;26.32;59.71
42945;BME280;28584;42.636;23.294;2023-07-20T08:51:21;165664.72;;;26.58;59.51
42945;BME280;28584;42.636;23.294;2023-07-20T08:53:47;165728.25;;;26.82;58.73
42945;BME280;28584;42.636;23.294;2023-07-20T08:56:14;165697.16;;;26.71;58.29
42945;BME280;28584;42.636;23.294;2023-07-20T08:58:43;165626.91;;;26.44;58.11
42945;BME280;28584;42.636;23.294;2023-07-20T09:01:10;165840.47;;;27.24;57.49
42945;BME280;28584;42.636;23.294;2023-07-20T09:03:36;165779.63;;;27.01;56.73
42945;BME280;28584;42.636;23.294;2023-07-20T09:06:05;165856.72;;;27.30;56.92
42945;BME280;28584;42.636;23.294;2023-07-20T09:08:31;165637.69;;;26.48;56.07
42945;BME280;28584;42.636;23.294;2023-07-20T09:10:57;165829.63;;;27.20;55.07
42945;BME280;28584;42.636;23.294;2023-07-20T09:13:25;165641.75;;;26.50;55.26
42945;BME280;28584;42.636;23.294;2023-07-20T09:15:54;165597.19;;;26.33;55.64
42945;BME280;28584;42.636;23.294;2023-07-20T09:18:27;165675.56;;;26.63;55.11
42945;BME280;28584;42.636;23.294;2023-07-20T09:20:57;165626.91;;;26.44;55.30
42945;BME280;28584;42.636;23.294;2023-07-20T09:23:35;165786.34;;;27.04;54.54
42945;BME280;28584;42.636;23.294;2023-07-20T09:26:09;165824.19;;;27.18;53.46
42945;BME280;28584;42.636;23.294;2023-07-20T09:28:53;165597.19;;;26.33;55.73
42945;BME280;28584;42.636;23.294;2023-07-20T09:31:22;165791.78;;;27.06;53.98
42945;BME280;28584;42.636;23.294;2023-07-20T09:33:49;165944.50;;;27.62;51.83
42945;BME280;28584;42.636;23.294;2023-07-20T09:36:15;166078.41;;;28.12;51.33
42945;BME280;28584;42.636;23.294;2023-07-20T09:38:44;166259.72;;;28.79;50.37
42945;BME280;28584;42.636;23.294;2023-07-20T09:41:13;166037.84;;;27.97;50.98
42945;BME280;28584;42.636;23.294;2023-07-20T09:43:40;165997.28;;;27.82;51.22
42945;BME280;28584;42.636;23.294;2023-07-20T09:46:06;166154.13;;;28.40;50.70
42945;BME280;28584;42.636;23.294;2023-07-20T09:48:32;166186.66;;;28.52;50.00
42945;BME280;28584;42.636;23.294;2023-07-20T09:50:57;166213.72;;;28.62;48.84
42945;BME280;28584;42.636;23.294;2023-07-20T09:53:24;166358.50;;;29.16;48.97
42945;BME280;28584;42.636;23.294;2023-07-20T09:55:52;166305.69;;;28.96;47.45
42945;BME280;28584;42.636;23.294;2023-07-20T09:58:18;166284.03;;;28.88;47.22
42945;BME280;28584;42.636;23.294;2023-07-20T10:00:44;166247.53;;;28.74;48.31
42945;BME280;28584;42.636;23.294;2023-07-20T10:03:16;166116.25;;;28.26;48.59
42945;BME280;28584;42.636;23.294;2023-07-20T10:05:45;165972.91;;;27.73;50.51
42945;BME280;28584;42.636;23.294;2023-07-20T10:08:12;165981.03;;;27.76;50.99
42945;BME280;28584;42.636;23.294;2023-07-20T10:10:41;165802.59;;;27.10;51.12
42945;BME280;28584;42.636;23.294;2023-07-20T10:13:12;165732.31;;;26.84;50.80
42945;BME280;28584;42.636;23.294;2023-07-20T10:16:11;165735.03;;;26.85;51.60
42945;BME280;28584;42.636;23.294;2023-07-20T10:18:51;165881.00;;;27.39;50.89
42945;BME280;28584;42.636;23.294;2023-07-20T10:21:21;165786.34;;;27.04;50.51
42945;BME280;28584;42.636;23.294;2023-07-20T10:23:49;165845.84;;;27.26;50.48
42945;BME280;28584;42.636;23.294;2023-07-20T10:26:15;165897.22;;;27.45;50.68
42945;BME280;28584;42.636;23.294;2023-07-20T10:28:41;165909.41;;;27.49;50.18
42945;BME280;28584;42.636;23.294;2023-07-20T10:31:12;165943.19;;;27.62;49.81
42945;BME280;28584;42.636;23.294;2023-07-20T10:33:41;166106.81;;;28.22;49.92
42945;BME280;28584;42.636;23.294;2023-07-20T10:36:07;166248.84;;;28.75;48.68
42945;BME280;28584;42.636;23.294;2023-07-20T10:38:39;166357.13;;;29.15;48.22
42945;BME280;28584;42.636;23.294;2023-07-20T10:41:16;166431.53;;;29.43;48.78
42945;BME280;28584;42.636;23.294;2023-07-20T10:43:43;166293.50;;;28.91;49.12
42945;BME280;28584;42.636;23.294;2023-07-20T10:46:11;166389.56;;;29.27;49.42
42945;BME280;28584;42.636;23.294;2023-07-20T10:49:01;166640.09;;;30.20;49.17
42945;BME280;28584;42.636;23.294;2023-07-20T10:51:28;166862.16;;;31.02;47.04
42945;BME280;28584;42.636;23.294;2023-07-20T10:53:55;166883.88;;;31.10;44.11
42945;BME280;28584;42.636;23.294;2023-07-20T10:56:24;166752.44;;;30.61;45.75
42945;BME280;28584;42.636;23.294;2023-07-20T10:58:56;166633.34;;;30.17;45.34
42945;BME280;28584;42.636;23.294;2023-07-20T11:01:27;166646.84;;;30.22;43.52
42945;BME280;28584;42.636;23.294;2023-07-20T11:03:57;166841.88;;;30.94;42.98
42945;BME280;28584;42.636;23.294;2023-07-20T11:11:30;166940.81;;;31.31;42.72
42945;BME280;28584;42.636;23.294;2023-07-20T11:14:01;167009.91;;;31.57;43.63
42945;BME280;28584;42.636;23.294;2023-07-20T11:16:53;166996.31;;;31.52;42.92
42945;BME280;28584;42.636;23.294;2023-07-20T11:19:26;167411.19;;;33.05;41.45
42945;BME280;28584;42.636;23.294;2023-07-20T11:21:56;167675.75;;;34.03;38.08
42945;BME280;28584;42.636;23.294;2023-07-20T11:24:23;167664.91;;;33.99;36.55
42945;BME280;28584;42.636;23.294;2023-07-20T11:26:51;167827.75;;;34.59;36.61
42945;BME280;28584;42.636;23.294;2023-07-20T11:29:19;167625.50;;;33.84;37.04
42945;BME280;28584;42.636;23.294;2023-07-20T11:31:46;167802.00;;;34.49;37.08
42945;BME280;28584;42.636;23.294;2023-07-20T11:34:13;167592.97;;;33.72;37.54
42945;BME280;28584;42.636;23.294;2023-07-20T11:36:44;167305.41;;;32.66;39.19
42945;BME280;28584;42.636;23.294;2023-07-20T11:39:11;167519.75;;;33.45;38.88
42945;BME280;28584;42.636;23.294;2023-07-20T11:41:37;167823.69;;;34.57;37.93
42945;BME280;28584;42.636;23.294;2023-07-20T11:44:04;167514.28;;;33.43;38.56
42945;BME280;28584;42.636;23.294;2023-07-20T11:46:31;167342.03;;;32.79;39.07
42945;BME280;28584;42.636;23.294;2023-07-20T11:49:01;167289.13;;;32.60;39.65
42945;BME280;28584;42.636;23.294;2023-07-20T11:51:28;167290.50;;;32.60;39.61
42945;BME280;28584;42.636;23.294;2023-07-20T11:53:54;167370.53;;;32.90;39.69
42945;BME280;28584;42.636;23.294;2023-07-20T11:56:20;167337.97;;;32.78;37.29
42945;BME280;28584;42.636;23.294;2023-07-20T11:58:46;167095.28;;;31.88;38.91
42945;BME280;28584;42.636;23.294;2023-07-20T12:01:13;167060.03;;;31.75;39.49
42945;BME280;28584;42.636;23.294;2023-07-20T12:03:38;166973.28;;;31.43;39.30
42945;BME280;28584;42.636;23.294;2023-07-20T12:06:10;166923.13;;;31.24;39.05
42945;BME280;28584;42.636;23.294;2023-07-20T12:08:40;167022.06;;;31.61;39.58
42945;BME280;28584;42.636;23.294;2023-07-20T12:11:06;166942.13;;;31.31;39.57
42945;BME280;28584;42.636;23.294;2023-07-20T12:13:58;166934.03;;;31.28;39.56
42945;BME280;28584;42.636;23.294;2023-07-20T12:16:27;167012.59;;;31.58;39.17
42945;BME280;28584;42.636;23.294;2023-07-20T12:19:04;166912.28;;;31.20;38.68
42945;BME280;28584;42.636;23.294;2023-07-20T12:21:30;166767.31;;;30.67;39.42
42945;BME280;28584;42.636;23.294;2023-07-20T12:23:58;166738.91;;;30.56;40.13
42945;BME280;28584;42.636;23.294;2023-07-20T12:26:24;166782.28;;;30.72;39.05
42945;BME280;28584;42.636;23.294;2023-07-20T12:28:50;166744.31;;;30.58;39.13
42945;BME280;28584;42.636;23.294;2023-07-20T12:31:16;166771.38;;;30.68;38.67
42945;BME280;28584;42.636;23.294;2023-07-20T12:33:41;166711.84;;;30.46;39.35
42945;BME280;28584;42.636;23.294;2023-07-20T12:36:08;166706.41;;;30.44;39.03
42945;BME280;28584;42.636;23.294;2023-07-20T12:38:34;166718.59;;;30.49;39.28
42945;BME280;28584;42.636;23.294;2023-07-20T12:41:02;166687.44;;;30.37;39.07
42945;BME280;28584;42.636;23.294;2023-07-20T12:43:28;166604.84;;;30.07;38.40
42945;BME280;28584;42.636;23.294;2023-07-20T12:45:55;166584.50;;;29.99;39.73
42945;BME280;28584;42.636;23.294;2023-07-20T12:48:20;166557.44;;;29.89;38.83
42945;BME280;28584;42.636;23.294;2023-07-20T12:50:46;166568.31;;;29.93;40.21